Time;durP1;ratioP1;P1;durP2;ratioP2;P2;SDS_P1;SDS_P2;PMS_P1;PMS_P2;Temp;Humidity;BMP_temperature;BMP_pressure;BME280_temperature;BME280_humidity;BME280_pressure;Samples;Min_cycle;Max_cycle;Signal;HPM_P1;HPM_P2
2022/08/31 00:04:56;;;;;;;2.38;1.00;;;21.00;49.70;;;;;;5069779;28;20035;-77
2022/08/31 00:07:23;;;;;;;1.55;1.20;;;21.00;49.90;;;;;;5067409;28;20032;-78
2022/08/31 00:09:49;;;;;;;1.60;1.07;;;21.00;50.20;;;;;;5083935;28;20343;-78
2022/08/31 00:12:15;;;;;;;1.30;1.10;;;21.00;50.30;;;;;;5060107;28;20472;-78
2022/08/31 00:14:42;;;;;;;1.58;0.95;;;21.00;50.40;;;;;;5055762;28;20329;-78
2022/08/31 00:17:07;;;;;;;1.65;0.93;;;21.00;50.60;;;;;;5065473;28;20434;-78
2022/08/31 00:19:33;;;;;;;1.50;1.07;;;21.00;50.70;;;;;;5052971;28;20028;-78
2022/08/31 00:21:59;;;;;;;1.20;1.02;;;21.00;50.70;;;;;;5070176;28;20036;-78
2022/08/31 00:24:25;;;;;;;1.53;1.10;;;21.00;50.80;;;;;;5078642;28;20115;-79
2022/08/31 00:26:50;;;;;;;1.65;1.00;;;21.10;51.00;;;;;;5052649;28;20435;-79
2022/08/31 00:29:16;;;;;;;1.47;0.90;;;21.10;51.10;;;;;;5079396;28;20091;-78
2022/08/31 00:31:42;;;;;;;2.10;1.07;;;21.10;51.20;;;;;;5041540;28;20282;-78
2022/08/31 00:34:08;;;;;;;1.98;1.08;;;21.10;51.30;;;;;;5055077;28;20008;-78
2022/08/31 00:36:34;;;;;;;1.47;1.00;;;21.20;51.40;;;;;;5065862;28;20028;-78
2022/08/31 00:38:59;;;;;;;2.30;1.30;;;21.20;51.40;;;;;;5062243;28;20165;-78
2022/08/31 00:41:29;;;;;;;1.70;1.30;;;21.20;51.40;;;;;;5045421;28;20525;-78
2022/08/31 00:44:01;;;;;;;1.25;1.08;;;21.20;51.80;;;;;;5077753;28;20579;-78
2022/08/31 00:46:30;;;;;;;1.25;1.02;;;21.20;52.00;;;;;;5062382;28;20060;-78
2022/08/31 00:48:56;;;;;;;1.45;1.10;;;21.30;51.70;;;;;;5058652;28;20562;-78
2022/08/31 00:51:22;;;;;;;1.20;1.10;;;21.30;51.70;;;;;;5063202;28;20050;-78
2022/08/31 00:53:49;;;;;;;1.40;1.17;;;21.30;51.70;;;;;;5049354;28;20304;-78
2022/08/31 00:56:15;;;;;;;2.05;1.20;;;21.30;51.80;;;;;;5069584;28;20275;-78
2022/08/31 00:58:42;;;;;;;1.13;1.00;;;21.30;52.60;;;;;;5039516;28;20021;-78
2022/08/31 01:01:09;;;;;;;1.30;1.20;;;21.30;52.70;;;;;;5051841;28;20045;-78
2022/08/31 01:03:35;;;;;;;1.20;1.00;;;21.30;52.20;;;;;;5056536;28;20702;-78
2022/08/31 01:06:01;;;;;;;3.45;1.50;;;21.30;52.10;;;;;;5059766;28;20028;-78
2022/08/31 01:08:27;;;;;;;1.85;1.20;;;21.30;52.20;;;;;;5071406;28;20052;-78
2022/08/31 01:10:53;;;;;;;1.63;1.10;;;21.30;52.20;;;;;;5065597;28;20437;-78
2022/08/31 01:13:20;;;;;;;1.50;1.00;;;21.30;52.20;;;;;;5050373;28;20487;-78
2022/08/31 01:15:55;;;;;;;1.90;1.40;;;21.30;52.30;;;;;;5066265;28;20373;-78
2022/08/31 01:18:22;;;;;;;1.70;1.20;;;21.30;53.10;;;;;;5063980;28;20129;-78
2022/08/31 01:21:16;;;;;;;2.05;1.40;;;21.20;52.40;;;;;;5054188;28;20497;-78
2022/08/31 01:23:44;;;;;;;1.17;1.07;;;21.20;53.30;;;;;;5075109;28;20028;-78
2022/08/31 01:26:14;;;;;;;1.40;1.30;;;21.20;52.70;;;;;;5060050;28;20028;-78
2022/08/31 01:28:40;;;;;;;1.63;1.20;;;21.10;52.80;;;;;;5067342;28;20276;-78
2022/08/31 01:31:22;;;;;;;1.63;1.30;;;21.10;52.60;;;;;;5066470;28;20545;-78
2022/08/31 01:33:48;;;;;;;2.23;1.20;;;21.10;53.50;;;;;;5055796;28;20472;-78
2022/08/31 01:36:15;;;;;;;2.85;1.20;;;21.10;52.90;;;;;;5040065;28;20051;-78
2022/08/31 01:38:41;;;;;;;2.25;1.20;;;21.10;53.10;;;;;;5079035;28;20138;-78
2022/08/31 01:41:07;;;;;;;1.63;1.10;;;21.10;53.10;;;;;;5053842;28;20025;-78
2022/08/31 01:43:33;;;;;;;2.78;1.27;;;21.00;53.20;;;;;;5066063;28;20395;-78
2022/08/31 01:46:07;;;;;;;1.33;1.10;;;21.10;53.40;;;;;;5064580;28;20024;-78
2022/08/31 01:48:34;;;;;;;1.48;1.00;;;21.00;53.80;;;;;;5053841;28;20082;-78
2022/08/31 01:51:00;;;;;;;1.65;1.25;;;21.00;53.50;;;;;;5050497;28;20028;-78
2022/08/31 01:53:25;;;;;;;1.25;1.10;;;21.00;53.40;;;;;;5056474;28;20032;-78
2022/08/31 01:55:51;;;;;;;1.60;1.30;;;21.00;53.50;;;;;;5072268;28;20043;-78
2022/08/31 01:58:17;;;;;;;2.03;1.25;;;20.90;53.60;;;;;;5049876;28;20028;-78
2022/08/31 02:00:44;;;;;;;1.50;1.30;;;20.90;53.70;;;;;;5074252;28;20032;-78
2022/08/31 02:03:10;;;;;;;2.65;1.40;;;20.90;53.80;;;;;;5045477;28;20055;-78
2022/08/31 02:05:37;;;;;;;2.90;1.20;;;20.80;53.80;;;;;;5080646;28;20468;-78
2022/08/31 02:08:04;;;;;;;1.40;1.20;;;20.80;53.90;;;;;;5048312;28;20013;-78
2022/08/31 02:10:30;;;;;;;2.58;1.23;;;20.80;54.00;;;;;;5070412;28;20527;-78
2022/08/31 02:12:56;;;;;;;1.40;1.30;;;20.70;54.00;;;;;;5062918;28;20051;-78
2022/08/31 02:15:22;;;;;;;2.42;1.35;;;20.70;54.20;;;;;;5035347;28;20248;-78
2022/08/31 02:17:48;;;;;;;1.33;1.20;;;20.60;54.20;;;;;;5078416;28;20047;-78
2022/08/31 02:20:14;;;;;;;1.53;1.30;;;20.60;54.40;;;;;;5052150;28;20353;-78
2022/08/31 02:22:41;;;;;;;1.27;1.10;;;20.60;54.60;;;;;;5042640;28;20020;-78
2022/08/31 02:25:07;;;;;;;1.63;1.20;;;20.60;54.70;;;;;;5069511;28;20021;-78
2022/08/31 02:27:35;;;;;;;2.35;1.30;;;20.50;54.80;;;;;;5075120;28;20178;-78
2022/08/31 02:30:05;;;;;;;1.23;1.13;;;20.50;55.60;;;;;;5057994;28;20017;-78
2022/08/31 02:32:31;;;;;;;2.63;1.23;;;20.50;55.00;;;;;;5075670;28;20081;-78
2022/08/31 02:34:57;;;;;;;2.03;1.35;;;20.50;55.10;;;;;;5055027;28;20036;-78
2022/08/31 02:37:22;;;;;;;1.90;1.43;;;20.50;55.20;;;;;;5058531;28;20032;-78
2022/08/31 02:39:48;;;;;;;1.77;1.50;;;20.50;55.20;;;;;;5074429;28;20051;-78
2022/08/31 02:42:14;;;;;;;2.20;1.10;;;20.50;55.30;;;;;;5071157;28;20032;-78
2022/08/31 02:44:39;;;;;;;1.85;1.25;;;20.50;55.50;;;;;;5053042;28;20385;-78
2022/08/31 02:47:05;;;;;;;1.97;1.20;;;20.50;55.50;;;;;;5061803;28;20058;-78
2022/08/31 02:49:32;;;;;;;2.45;1.33;;;20.40;55.50;;;;;;5061116;28;20218;-78
2022/08/31 02:51:58;;;;;;;1.75;1.30;;;20.40;55.70;;;;;;5066378;28;20127;-78
2022/08/31 02:54:23;;;;;;;3.00;1.30;;;20.40;55.70;;;;;;5068450;28;20550;-78
2022/08/31 02:56:49;;;;;;;2.17;1.33;;;20.40;55.90;;;;;;5070032;28;20411;-78
2022/08/31 02:59:15;;;;;;;1.30;1.20;;;20.40;56.30;;;;;;5066417;28;20255;-78
2022/08/31 03:01:41;;;;;;;2.20;1.30;;;20.40;56.10;;;;;;5070342;28;20492;-78
2022/08/31 03:04:07;;;;;;;3.20;1.20;;;20.40;56.80;;;;;;5076800;28;20020;-78
2022/08/31 03:06:33;;;;;;;1.48;1.10;;;20.40;56.30;;;;;;5060931;28;20572;-78
2022/08/31 03:08:59;;;;;;;1.50;1.30;;;20.40;56.20;;;;;;5066350;28;20579;-78
2022/08/31 03:11:26;;;;;;;2.28;1.20;;;20.40;56.30;;;;;;5063529;28;21241;-78
2022/08/31 03:13:52;;;;;;;2.57;1.40;;;20.30;56.30;;;;;;5078093;28;20032;-78
2022/08/31 03:16:18;;;;;;;1.92;1.40;;;20.30;56.30;;;;;;5067915;28;20039;-78
2022/08/31 03:18:45;;;;;;;1.90;1.48;;;20.30;56.50;;;;;;5077364;28;20028;-78
2022/08/31 03:21:11;;;;;;;1.80;1.20;;;20.20;56.30;;;;;;5056484;28;20061;-78
2022/08/31 03:23:37;;;;;;;1.27;1.17;;;20.20;56.50;;;;;;5062959;28;20024;-78
2022/08/31 03:26:04;;;;;;;2.80;1.33;;;20.20;56.60;;;;;;5054384;28;20024;-78
2022/08/31 03:28:32;;;;;;;1.30;1.20;;;20.20;56.70;;;;;;5049366;28;20244;-78
2022/08/31 03:30:58;;;;;;;1.55;1.30;;;20.10;56.90;;;;;;5057088;28;20114;-78
2022/08/31 03:33:24;;;;;;;1.97;1.50;;;20.10;56.70;;;;;;5073658;28;20051;-78
2022/08/31 03:35:49;;;;;;;1.48;1.20;;;20.10;56.80;;;;;;5037443;28;20147;-78
2022/08/31 03:38:16;;;;;;;2.30;1.33;;;20.10;56.80;;;;;;5072274;28;20019;-78
2022/08/31 03:40:43;;;;;;;1.70;1.20;;;20.00;56.90;;;;;;5057187;28;20016;-78
2022/08/31 03:43:10;;;;;;;1.90;1.50;;;20.00;57.10;;;;;;5069356;28;20128;-78
2022/08/31 03:45:37;;;;;;;1.42;1.23;;;20.00;57.20;;;;;;5080140;28;20016;-78
2022/08/31 03:48:05;;;;;;;1.53;1.20;;;19.90;57.30;;;;;;5054484;28;21333;-78
2022/08/31 03:50:32;;;;;;;1.80;1.27;;;19.90;57.30;;;;;;5091697;28;20036;-78
2022/08/31 03:52:59;;;;;;;1.60;1.33;;;19.80;57.50;;;;;;5058569;28;20092;-78
2022/08/31 03:55:27;;;;;;;2.40;1.40;;;19.80;57.60;;;;;;5059084;28;20032;-78
2022/08/31 03:57:53;;;;;;;1.58;1.33;;;19.80;57.60;;;;;;5062558;28;20032;-78
2022/08/31 04:00:19;;;;;;;2.10;1.27;;;19.70;57.60;;;;;;5041654;28;20040;-78
2022/08/31 04:02:45;;;;;;;2.08;1.17;;;19.70;57.70;;;;;;5056266;28;20516;-78
2022/08/31 04:05:12;;;;;;;3.40;1.30;;;19.70;57.80;;;;;;5064112;28;20022;-78
2022/08/31 04:07:38;;;;;;;1.45;1.20;;;19.70;57.90;;;;;;5057577;28;20028;-78
2022/08/31 04:10:04;;;;;;;2.08;1.23;;;19.70;58.00;;;;;;5054560;28;20030;-78
2022/08/31 04:12:29;;;;;;;1.40;1.30;;;19.60;57.90;;;;;;5068877;28;20627;-78
2022/08/31 04:14:56;;;;;;;1.60;1.38;;;19.60;57.90;;;;;;5066260;28;20071;-78
2022/08/31 04:17:22;;;;;;;2.13;1.40;;;19.60;58.10;;;;;;5057023;28;20028;-77
2022/08/31 04:19:47;;;;;;;1.77;1.13;;;19.60;58.30;;;;;;5053706;28;20043;-78
2022/08/31 04:22:13;;;;;;;2.35;1.30;;;19.60;58.30;;;;;;5048717;28;20028;-78
2022/08/31 04:24:39;;;;;;;1.80;1.38;;;19.60;58.30;;;;;;5080645;28;20058;-78
2022/08/31 04:27:05;;;;;;;1.80;1.30;;;19.50;59.00;;;;;;5058642;28;20026;-77
2022/08/31 04:29:31;;;;;;;4.78;1.40;;;19.50;58.40;;;;;;5042549;28;20046;-78
2022/08/31 04:31:57;;;;;;;1.40;1.30;;;19.50;58.50;;;;;;5056411;28;20020;-78
2022/08/31 04:34:24;;;;;;;2.00;1.30;;;19.50;58.70;;;;;;5060865;28;20164;-78
2022/08/31 04:36:50;;;;;;;2.03;1.30;;;19.50;58.60;;;;;;5052146;28;20784;-78
2022/08/31 04:39:15;;;;;;;1.70;1.40;;;19.40;58.80;;;;;;5043852;28;20012;-78
2022/08/31 04:41:41;;;;;;;1.52;1.33;;;19.40;58.90;;;;;;5059108;28;20039;-77
2022/08/31 04:44:07;;;;;;;1.30;1.13;;;19.40;58.90;;;;;;5077392;28;20093;-78
2022/08/31 04:46:35;;;;;;;1.90;1.10;;;19.40;59.00;;;;;;5047663;28;20020;-78
2022/08/31 04:49:02;;;;;;;1.98;1.17;;;19.40;59.90;;;;;;5067520;28;20062;-78
2022/08/31 04:51:30;;;;;;;2.30;1.38;;;19.40;59.30;;;;;;5064617;28;20035;-78
2022/08/31 04:53:56;;;;;;;1.73;1.30;;;19.40;59.50;;;;;;5041348;28;20240;-78
2022/08/31 04:56:29;;;;;;;1.95;1.30;;;19.40;59.40;;;;;;5077221;28;20085;-78
2022/08/31 04:59:00;;;;;;;1.90;1.20;;;19.40;59.90;;;;;;5038435;28;20111;-78
2022/08/31 05:01:29;;;;;;;1.85;1.30;;;19.40;60.00;;;;;;5069661;28;20044;-78
2022/08/31 05:03:56;;;;;;;1.50;1.20;;;19.40;59.80;;;;;;5048297;28;20044;-78
2022/08/31 05:06:26;;;;;;;1.50;1.13;;;19.40;59.80;;;;;;5071797;28;20231;-78
2022/08/31 05:08:58;;;;;;;1.70;1.27;;;19.40;59.90;;;;;;5043423;28;20024;-78
2022/08/31 05:11:25;;;;;;;2.57;1.30;;;19.40;60.20;;;;;;5058888;28;20295;-79
2022/08/31 05:13:52;;;;;;;1.40;1.25;;;19.40;59.80;;;;;;5045202;28;20021;-77
2022/08/31 05:16:18;;;;;;;2.58;1.33;;;19.40;59.90;;;;;;5060426;28;20021;-78
2022/08/31 05:18:46;;;;;;;2.03;1.25;;;19.40;59.90;;;;;;5060701;28;20089;-78
2022/08/31 05:21:27;;;;;;;2.80;1.30;;;19.40;60.10;;;;;;5064378;28;20105;-78
2022/08/31 05:23:54;;;;;;;1.90;1.27;;;19.40;60.40;;;;;;5044309;28;20139;-78
2022/08/31 05:26:23;;;;;;;1.45;1.15;;;19.40;60.00;;;;;;5063428;28;20024;-78
2022/08/31 05:28:49;;;;;;;1.70;1.35;;;19.40;60.20;;;;;;5046772;28;20024;-78
2022/08/31 05:31:15;;;;;;;2.22;1.30;;;19.40;60.00;;;;;;5059307;28;20443;-78
2022/08/31 05:33:42;;;;;;;1.30;1.20;;;19.40;60.20;;;;;;5056853;28;20328;-78
2022/08/31 05:36:09;;;;;;;4.13;1.40;;;19.40;60.30;;;;;;5055506;28;20476;-78
2022/08/31 05:38:35;;;;;;;2.05;1.30;;;19.40;60.20;;;;;;5044492;28;20788;-77
2022/08/31 05:41:02;;;;;;;1.90;1.30;;;19.30;60.20;;;;;;5069466;28;20019;-78
2022/08/31 05:43:28;;;;;;;2.55;1.40;;;19.40;60.20;;;;;;5051514;28;20457;-78
2022/08/31 05:45:54;;;;;;;1.67;1.23;;;19.30;60.30;;;;;;5056151;28;20061;-78
2022/08/31 05:48:21;;;;;;;2.28;1.40;;;19.40;60.40;;;;;;5062787;28;20081;-78
2022/08/31 05:50:46;;;;;;;1.80;1.30;;;19.30;60.40;;;;;;5054822;28;20473;-78
2022/08/31 05:53:12;;;;;;;2.20;1.30;;;19.30;60.30;;;;;;5068216;28;20028;-78
2022/08/31 05:55:38;;;;;;;1.90;1.40;;;19.30;60.30;;;;;;5044873;28;20090;-78
2022/08/31 05:58:04;;;;;;;1.83;1.45;;;19.30;60.40;;;;;;5061993;28;20051;-78
2022/08/31 06:00:31;;;;;;;1.67;1.40;;;19.30;60.40;;;;;;5060207;28;20052;-78
2022/08/31 06:02:57;;;;;;;2.10;1.38;;;19.30;60.30;;;;;;5061470;28;20386;-78
2022/08/31 06:05:23;;;;;;;2.00;1.50;;;19.30;60.60;;;;;;5064521;28;20029;-78
2022/08/31 06:07:49;;;;;;;3.53;1.50;;;19.30;60.60;;;;;;5045308;28;20234;-78
2022/08/31 06:10:16;;;;;;;1.38;1.27;;;19.20;60.60;;;;;;5031856;28;20027;-78
2022/08/31 06:12:43;;;;;;;1.98;1.48;;;19.20;60.90;;;;;;5073124;28;20028;-78
2022/08/31 06:15:10;;;;;;;1.97;1.23;;;19.30;60.80;;;;;;5057466;28;20020;-78
2022/08/31 06:17:36;;;;;;;2.40;1.30;;;19.20;60.90;;;;;;5035342;28;20278;-78
2022/08/31 06:20:04;;;;;;;2.40;1.40;;;19.30;61.10;;;;;;5054620;28;20032;-77
2022/08/31 06:22:30;;;;;;;1.70;1.33;;;19.20;61.10;;;;;;5064327;28;20039;-78
2022/08/31 06:24:55;;;;;;;2.73;1.47;;;19.30;61.10;;;;;;5070669;28;20064;-78
2022/08/31 06:27:21;;;;;;;2.88;1.55;;;19.30;61.20;;;;;;5043890;28;20563;-78
2022/08/31 06:29:48;;;;;;;1.93;1.30;;;19.30;61.10;;;;;;5072117;28;20028;-78
2022/08/31 06:32:14;;;;;;;1.50;1.40;;;19.30;61.10;;;;;;5058476;28;20020;-78
2022/08/31 06:34:41;;;;;;;2.63;1.40;;;19.30;61.10;;;;;;5069967;28;20024;-78
2022/08/31 06:37:09;;;;;;;1.55;1.17;;;19.40;62.10;;;;;;5064352;28;20059;-78
2022/08/31 06:39:36;;;;;;;2.10;1.35;;;19.40;61.40;;;;;;5054896;28;20021;-79
2022/08/31 06:42:02;;;;;;;1.50;1.30;;;19.50;61.40;;;;;;5048039;28;20024;-79
2022/08/31 06:44:29;;;;;;;2.28;1.40;;;19.50;61.30;;;;;;5050500;28;20109;-78
2022/08/31 06:46:55;;;;;;;1.60;1.23;;;19.60;61.30;;;;;;5055827;28;20066;-78
2022/08/31 06:49:22;;;;;;;1.98;1.30;;;19.60;61.30;;;;;;5061585;28;20405;-78
2022/08/31 06:51:49;;;;;;;1.90;1.30;;;19.60;61.40;;;;;;5058644;28;20775;-77
2022/08/31 06:54:17;;;;;;;2.50;1.37;;;19.70;61.40;;;;;;5072199;28;20024;-78
2022/08/31 06:56:44;;;;;;;1.75;1.27;;;19.80;61.40;;;;;;5044903;28;20025;-78
2022/08/31 06:59:11;;;;;;;1.73;1.38;;;19.90;61.50;;;;;;5066188;28;20035;-78
2022/08/31 07:01:38;;;;;;;2.38;1.60;;;19.90;61.50;;;;;;5044465;28;20555;-78
2022/08/31 07:04:07;;;;;;;1.70;1.40;;;20.00;61.40;;;;;;5034921;28;20032;-78
2022/08/31 07:06:51;;;;;;;3.07;1.60;;;20.10;61.50;;;;;;5071050;28;20032;-78
2022/08/31 07:09:17;;;;;;;1.85;1.30;;;20.30;61.60;;;;;;5048600;28;20684;-79
2022/08/31 07:11:49;;;;;;;1.73;1.40;;;20.40;61.70;;;;;;5069736;28;20384;-79
2022/08/31 07:14:17;;;;;;;1.83;1.30;;;20.60;61.80;;;;;;5032268;28;20063;-78
2022/08/31 07:16:43;;;;;;;1.60;1.30;;;20.80;62.20;;;;;;5045388;28;20096;-78
2022/08/31 07:19:11;;;;;;;2.10;1.50;;;21.00;62.20;;;;;;5061693;28;20034;-80
2022/08/31 07:21:49;;;;;;;1.65;1.20;;;21.30;62.10;;;;;;5056688;28;20081;-78
2022/08/31 07:24:17;;;;;;;1.73;1.30;;;21.50;61.70;;;;;;5064860;28;20035;-78
2022/08/31 07:26:49;;;;;;;2.30;1.40;;;21.80;61.30;;;;;;5060479;28;20020;-78
2022/08/31 07:29:17;;;;;;;1.60;1.30;;;22.00;60.90;;;;;;5049814;28;20035;-78
2022/08/31 07:31:45;;;;;;;2.47;1.50;;;22.30;60.90;;;;;;5048632;28;20114;-78
2022/08/31 07:34:24;;;;;;;1.50;1.25;;;22.50;60.90;;;;;;5047297;28;20024;-78
2022/08/31 07:42:26;;;;;;;2.58;1.30;;;23.20;59.40;;;;;;5055292;28;20135;-79
2022/08/31 07:44:52;;;;;;;1.93;1.13;;;23.40;59.00;;;;;;5033680;28;20601;-78
2022/08/31 07:47:19;;;;;;;2.47;1.33;;;23.60;58.80;;;;;;5032313;28;20173;-78
2022/08/31 07:49:51;;;;;;;1.92;1.30;;;23.70;58.50;;;;;;5054033;28;20032;-78
2022/08/31 07:52:24;;;;;;;1.40;1.27;;;24.00;58.30;;;;;;5065950;28;20776;-79
2022/08/31 07:54:52;;;;;;;1.80;1.40;;;24.10;57.70;;;;;;5044832;28;20039;-78
2022/08/31 07:57:19;;;;;;;1.60;1.37;;;24.30;57.50;;;;;;5062498;28;20073;-78
2022/08/31 07:59:46;;;;;;;1.40;1.30;;;24.40;57.20;;;;;;5036387;28;20023;-78
2022/08/31 08:02:14;;;;;;;2.05;1.23;;;24.50;57.00;;;;;;5055340;28;20152;-79
2022/08/31 08:04:43;;;;;;;1.60;1.20;;;24.70;56.90;;;;;;5037331;28;20031;-79
2022/08/31 08:07:10;;;;;;;3.50;1.40;;;24.80;56.80;;;;;;5062241;28;20028;-78
2022/08/31 08:09:36;;;;;;;1.40;1.30;;;25.00;56.80;;;;;;5059296;28;20017;-78
2022/08/31 08:12:05;;;;;;;2.22;1.30;;;25.10;56.70;;;;;;5057651;28;20089;-78
2022/08/31 08:14:33;;;;;;;1.75;1.30;;;25.30;56.60;;;;;;5050512;28;21324;-78
2022/08/31 08:16:59;;;;;;;2.95;1.30;;;25.60;56.70;;;;;;5070708;28;20452;-78
2022/08/31 08:19:26;;;;;;;1.50;1.40;;;25.80;57.00;;;;;;5036756;28;20044;-78
2022/08/31 08:21:52;;;;;;;1.40;1.20;;;26.10;57.10;;;;;;5071383;28;20055;-78
2022/08/31 08:24:18;;;;;;;2.45;1.45;;;26.40;57.00;;;;;;5064357;28;20175;-79
2022/08/31 08:26:45;;;;;;;2.20;1.40;;;26.80;56.70;;;;;;5049732;28;20145;-80
2022/08/31 08:29:11;;;;;;;2.77;1.33;;;27.10;56.30;;;;;;5047684;28;20724;-79
2022/08/31 08:31:37;;;;;;;2.10;1.30;;;27.50;56.00;;;;;;5055289;28;20032;-78
2022/08/31 08:34:03;;;;;;;1.42;1.33;;;27.80;55.50;;;;;;5056442;28;20538;-79
2022/08/31 08:36:36;;;;;;;1.75;1.30;;;28.10;55.00;;;;;;5049596;28;20755;-78
2022/08/31 08:39:06;;;;;;;2.17;1.50;;;28.50;54.10;;;;;;5069485;28;20028;-79
2022/08/31 08:41:35;;;;;;;1.30;1.20;;;28.70;53.00;;;;;;5049074;28;20119;-79
2022/08/31 08:44:04;;;;;;;1.83;1.50;;;29.00;53.40;;;;;;5069848;28;20032;-79
2022/08/31 08:46:47;;;;;;;1.67;1.40;;;29.30;52.80;;;;;;5032212;28;20225;-79
2022/08/31 08:49:28;;;;;;;1.52;1.40;;;29.50;50.70;;;;;;5055700;28;20335;-78
2022/08/31 08:52:06;;;;;;;1.40;1.20;;;29.80;51.10;;;;;;5046598;28;20085;-79
2022/08/31 08:54:37;;;;;;;2.05;1.30;;;30.00;50.90;;;;;;5054125;28;20106;-79
2022/08/31 08:57:15;;;;;;;2.20;1.30;;;30.30;50.80;;;;;;5038872;28;20086;-79
2022/08/31 08:59:46;;;;;;;1.55;1.33;;;30.40;49.40;;;;;;5047876;28;20597;-79
2022/08/31 09:02:18;;;;;;;1.75;1.40;;;30.60;49.30;;;;;;5046899;28;20047;-79
2022/08/31 09:04:50;;;;;;;1.77;1.23;;;30.80;48.80;;;;;;5040298;28;20040;-78
2022/08/31 09:07:21;;;;;;;1.67;1.20;;;30.90;48.10;;;;;;5057337;28;20016;-79
2022/08/31 09:10:27;;;;;;;2.08;1.40;;;30.90;47.60;;;;;;5063706;28;20249;-79
2022/08/31 09:13:11;;;;;;;2.10;1.30;;;31.00;46.80;;;;;;5051323;28;20059;-79
2022/08/31 09:15:55;;;;;;;1.92;1.30;;;30.90;47.00;;;;;;5062040;28;20021;-79
2022/08/31 09:18:45;;;;;;;1.97;1.50;;;30.90;46.80;;;;;;5049519;28;20035;-80
2022/08/31 09:21:20;;;;;;;1.75;1.50;;;30.80;46.40;;;;;;5031662;28;20051;-78
2022/08/31 09:24:04;;;;;;;1.98;1.63;;;30.80;46.00;;;;;;5070107;28;20081;-79
2022/08/31 09:26:45;;;;;;;3.60;1.25;;;30.80;46.70;;;;;;5068377;28;20752;-78
2022/08/31 09:29:20;;;;;;;1.50;1.40;;;31.00;46.70;;;;;;5058902;28;20428;-79
2022/08/31 09:31:46;;;;;;;2.20;1.40;;;31.20;45.80;;;;;;5050328;28;20023;-79
2022/08/31 09:34:31;;;;;;;1.48;1.30;;;31.30;46.90;;;;;;5023513;28;20115;-79
2022/08/31 09:37:15;;;;;;;1.90;1.35;;;31.60;45.50;;;;;;5038929;28;20589;-79
2022/08/31 09:39:46;;;;;;;2.65;1.35;;;31.90;44.70;;;;;;5058155;28;20493;-79
2022/08/31 09:42:32;;;;;;;1.80;1.40;;;32.10;45.30;;;;;;5061813;28;20463;-80
2022/08/31 09:45:10;;;;;;;2.17;1.55;;;32.20;44.40;;;;;;5040650;28;20141;-78
2022/08/31 09:47:49;;;;;;;2.67;1.50;;;32.30;43.90;;;;;;5051779;28;20012;-79
2022/08/31 09:50:43;;;;;;;2.53;1.60;;;32.40;42.60;;;;;;5055218;28;20035;-79
2022/08/31 09:56:14;;;;;;;1.70;1.43;;;32.30;42.70;;;;;;5077164;28;20025;-79
2022/08/31 09:58:49;;;;;;;1.80;1.45;;;32.10;42.60;;;;;;5066097;28;20030;-78
2022/08/31 10:01:43;;;;;;;2.58;1.50;;;32.00;41.40;;;;;;5072649;28;20051;-79
2022/08/31 10:04:22;;;;;;;2.35;1.40;;;31.80;41.40;;;;;;5045846;28;20297;-79
2022/08/31 10:07:05;;;;;;;1.40;1.27;;;31.50;41.00;;;;;;5054354;28;20165;-78
2022/08/31 10:09:38;;;;;;;3.00;1.40;;;31.30;41.10;;;;;;5025532;28;20247;-78
2022/08/31 10:12:08;;;;;;;2.08;1.30;;;31.00;41.30;;;;;;5065752;28;20609;-79
2022/08/31 10:14:56;;;;;;;3.95;1.45;;;30.80;41.40;;;;;;5066257;28;20024;-79
2022/08/31 10:17:28;;;;;;;2.10;1.38;;;30.60;41.60;;;;;;5062952;28;20488;-78
2022/08/31 10:20:04;;;;;;;3.25;1.42;;;30.60;42.70;;;;;;5051917;28;20066;-78
2022/08/31 10:22:45;;;;;;;2.23;1.63;;;30.70;43.40;;;;;;5054739;28;20082;-78
2022/08/31 10:25:20;;;;;;;2.80;1.60;;;31.00;43.80;;;;;;5041303;28;20036;-78
2022/08/31 10:28:13;;;;;;;2.22;1.40;;;31.40;45.00;;;;;;5069477;28;20033;-78
2022/08/31 10:30:51;;;;;;;2.63;1.70;;;31.80;43.20;;;;;;5071202;28;20016;-78
2022/08/31 10:33:22;;;;;;;2.20;1.50;;;32.10;42.50;;;;;;5061581;28;20339;-79
2022/08/31 10:35:50;;;;;;;2.53;1.40;;;32.30;42.20;;;;;;5043297;28;20028;-78
2022/08/31 10:38:42;;;;;;;2.63;1.75;;;32.40;42.60;;;;;;5047286;28;20160;-78
2022/08/31 10:41:27;;;;;;;1.50;1.30;;;32.40;40.60;;;;;;5044922;28;20320;-79
2022/08/31 10:44:22;;;;;;;1.80;1.45;;;32.40;40.30;;;;;;5070338;28;20400;-78
2022/08/31 10:46:57;;;;;;;3.45;1.50;;;32.30;40.90;;;;;;5061448;28;20033;-78
2022/08/31 10:49:24;;;;;;;2.37;1.60;;;32.30;40.80;;;;;;5073189;28;20040;-78
2022/08/31 10:51:55;;;;;;;2.00;1.58;;;32.30;41.60;;;;;;5031649;28;20016;-78
2022/08/31 10:54:54;;;;;;;1.80;1.50;;;32.60;41.90;;;;;;5060644;28;20464;-78
2022/08/31 10:57:48;;;;;;;2.90;1.77;;;32.90;41.60;;;;;;5037672;28;20041;-78
2022/08/31 11:03:13;;;;;;;1.80;1.50;;;33.90;42.30;;;;;;5065161;28;20122;-78
2022/08/31 11:05:46;;;;;;;2.28;2.08;;;34.40;42.20;;;;;;5048271;28;20902;-79
2022/08/31 11:08:18;;;;;;;2.42;1.90;;;34.70;40.80;;;;;;5066333;28;20024;-78
2022/08/31 11:10:50;;;;;;;2.03;1.83;;;35.00;40.50;;;;;;5064507;28;20060;-79
2022/08/31 11:13:46;;;;;;;2.47;1.90;;;35.30;39.20;;;;;;5054616;28;20119;-79
2022/08/31 11:16:25;;;;;;;3.80;2.17;;;35.60;38.00;;;;;;5068157;28;20400;-80
2022/08/31 11:19:16;;;;;;;2.75;2.10;;;35.80;38.50;;;;;;5057302;28;20400;-80
2022/08/31 11:22:10;;;;;;;2.50;2.00;;;36.00;37.90;;;;;;5040110;28;20243;-79
2022/08/31 11:24:56;;;;;;;2.88;1.90;;;36.10;37.80;;;;;;5049911;28;20020;-80
2022/08/31 11:27:25;;;;;;;4.13;2.10;;;36.30;37.80;;;;;;5023774;28;20029;-81
2022/08/31 11:30:06;;;;;;;2.80;2.03;;;36.40;37.60;;;;;;5045502;28;20024;-79
2022/08/31 11:32:38;;;;;;;2.33;1.80;;;36.60;36.60;;;;;;5066330;28;20028;-80
2022/08/31 11:35:09;;;;;;;2.88;1.95;;;36.80;36.30;;;;;;5064027;28;20033;-80
2022/08/31 11:37:51;;;;;;;4.35;2.10;;;36.90;36.60;;;;;;5058881;28;20028;-78
2022/08/31 11:40:40;;;;;;;2.50;2.17;;;37.10;35.60;;;;;;5063414;28;20306;-78
2022/08/31 11:43:13;;;;;;;2.93;2.10;;;37.20;35.30;;;;;;5014502;28;21259;-77
2022/08/31 11:45:41;;;;;;;3.20;2.00;;;37.20;34.90;;;;;;5049408;28;20032;-77
2022/08/31 11:48:27;;;;;;;2.42;1.60;;;37.30;35.50;;;;;;5058152;28;20027;-77
2022/08/31 11:50:53;;;;;;;2.30;1.85;;;37.30;35.40;;;;;;5043900;28;20268;-77
2022/08/31 11:53:19;;;;;;;2.50;2.30;;;37.40;35.60;;;;;;5046673;28;20472;-77
2022/08/31 11:55:48;;;;;;;2.30;2.10;;;37.50;35.20;;;;;;5063497;28;20046;-77
2022/08/31 11:58:24;;;;;;;2.10;1.98;;;37.50;34.70;;;;;;5041463;28;20116;-77
2022/08/31 12:00:58;;;;;;;3.30;2.25;;;37.60;34.50;;;;;;5064172;28;20340;-78
2022/08/31 12:03:46;;;;;;;3.80;2.37;;;37.70;33.30;;;;;;5061567;28;20112;-77
2022/08/31 12:06:25;;;;;;;3.00;2.08;;;37.70;33.30;;;;;;5064268;28;20020;-77
2022/08/31 12:09:20;;;;;;;2.85;2.30;;;37.70;33.70;;;;;;5049606;28;20228;-77
2022/08/31 12:12:15;;;;;;;2.55;2.10;;;37.80;33.40;;;;;;5064531;28;20213;-78
2022/08/31 12:14:50;;;;;;;2.67;2.00;;;37.80;33.40;;;;;;5047614;28;20579;-76
2022/08/31 12:17:20;;;;;;;4.07;2.53;;;37.80;33.60;;;;;;5051189;28;20379;-77
2022/08/31 12:20:07;;;;;;;3.25;2.10;;;37.90;33.70;;;;;;5053321;28;20108;-77
2022/08/31 12:25:40;;;;;;;2.28;2.00;;;38.10;33.00;;;;;;5064920;28;20154;-77
2022/08/31 12:28:59;;;;;;;3.20;2.10;;;38.10;32.90;;;;;;5053466;28;20051;-78
2022/08/31 12:31:24;;;;;;;2.73;2.53;;;38.10;32.10;;;;;;5065280;28;20027;-78
2022/08/31 12:34:03;;;;;;;2.20;2.00;;;38.10;32.80;;;;;;5034920;28;20020;-77
2022/08/31 12:36:32;;;;;;;2.42;2.22;;;38.10;31.90;;;;;;5024193;28;20520;-77
2022/08/31 12:39:31;;;;;;;2.23;2.00;;;38.10;32.60;;;;;;5048255;28;20027;-77
2022/08/31 12:42:04;;;;;;;2.05;1.85;;;38.00;31.80;;;;;;5070393;28;20032;-77
2022/08/31 12:44:40;;;;;;;2.97;1.90;;;38.00;31.90;;;;;;5046063;28;20936;-78
2022/08/31 12:47:23;;;;;;;2.10;1.90;;;38.00;32.50;;;;;;5082086;28;20016;-78
2022/08/31 12:50:07;;;;;;;5.43;2.35;;;38.00;32.40;;;;;;5047634;28;20127;-77
2022/08/31 12:52:41;;;;;;;2.87;2.07;;;38.00;31.40;;;;;;5056965;28;20726;-77
2022/08/31 12:55:15;;;;;;;3.08;1.75;;;37.90;31.80;;;;;;5045229;28;20024;-77
2022/08/31 12:58:04;;;;;;;2.75;2.15;;;37.80;31.90;;;;;;5067600;28;20535;-77
2022/08/31 13:00:38;;;;;;;1.90;1.80;;;37.80;31.60;;;;;;5047456;28;20148;-76
2022/08/31 13:03:21;;;;;;;2.50;2.05;;;37.90;32.00;;;;;;5070087;28;20061;-78
2022/08/31 13:06:12;;;;;;;3.13;2.47;;;37.90;32.10;;;;;;5063533;28;20034;-77
2022/08/31 13:08:42;;;;;;;3.67;2.25;;;38.00;31.50;;;;;;5039862;28;20894;-76
2022/08/31 13:11:25;;;;;;;2.40;2.00;;;38.00;31.70;;;;;;5076072;28;20473;-77
2022/08/31 13:13:53;;;;;;;2.22;2.03;;;38.00;31.20;;;;;;5050414;28;20107;-78
2022/08/31 13:16:19;;;;;;;3.17;2.60;;;38.00;31.80;;;;;;5057895;28;20484;-77
2022/08/31 13:18:45;;;;;;;3.17;2.60;;;38.00;31.80;;;;;;5077821;28;20241;-77
2022/08/31 13:21:18;;;;;;;2.97;2.40;;;38.00;31.70;;;;;;5056795;28;20194;-77
2022/08/31 13:23:47;;;;;;;4.72;2.50;;;38.00;31.60;;;;;;5045907;28;20340;-77
2022/08/31 13:26:22;;;;;;;3.30;2.65;;;38.10;31.60;;;;;;5066495;28;20052;-77